Terminal Aerodrome Forecast
Issued by NWS Nashville, TN

Home | Current Version | Previous Version | Text Only | Print | Product List | Glossary On
Versions: 1 2 3 4 5 6 7 8 9 10 11 12 13 14 15 16 17
752
FTUS44 KOHX 221022 AAA
TAFBNA
TAF AMD
KBNA 221022Z 2210/2306 18012KT P6SM FEW110 BKN250
     FM221500 19018KT 5SM SHRA BKN025
      TEMPO 2216/2220 19020G30KT 1SM +TSRA OVC008CB
     FM222000 21016KT P6SM VCSH BKN020
     FM230100 22014KT P6SM SCT035=

USA.gov is the U.S. government's official web portal to all federal, state and local government web resources and services.